createdAt,value
2019-02-09T00:02:09.120Z,53.80
2019-02-09T00:04:39.749Z,53.80
2019-02-09T00:07:10.481Z,53.80
2019-02-09T00:09:40.991Z,53.90
2019-02-09T00:12:11.653Z,53.90
2019-02-09T00:14:43.143Z,53.90
2019-02-09T00:17:14.324Z,53.90
2019-02-09T00:19:44.722Z,54.00
2019-02-09T00:22:16.314Z,54.00
2019-02-09T00:24:47.833Z,54.10
2019-02-09T00:27:18.384Z,54.00
2019-02-09T00:29:48.963Z,54.10
2019-02-09T00:32:19.536Z,54.10
2019-02-09T00:34:50.077Z,54.20
2019-02-09T00:37:20.622Z,54.10
2019-02-09T00:39:51.103Z,54.10
2019-02-09T00:42:21.694Z,54.20
2019-02-09T00:44:53.332Z,54.20
2019-02-09T00:47:25.500Z,54.10
2019-02-09T00:49:56.064Z,54.20
2019-02-09T00:52:26.823Z,54.00
2019-02-09T00:54:57.537Z,54.10
2019-02-09T00:57:28.256Z,54.10
2019-02-09T00:59:58.698Z,54.80
2019-02-09T01:02:29.274Z,54.10
2019-02-09T01:04:59.832Z,54.10
2019-02-09T01:07:31.945Z,54.10
2019-02-09T01:10:02.419Z,54.10
2019-02-09T01:12:33.130Z,54.20
2019-02-09T01:15:03.818Z,54.20
2019-02-09T01:17:34.812Z,54.30
2019-02-09T01:20:08.742Z,54.40
2019-02-09T01:22:39.238Z,54.30
2019-02-09T01:25:10.446Z,54.30
2019-02-09T01:27:41.087Z,54.30
2019-02-09T01:30:17.124Z,54.40
2019-02-09T01:32:47.616Z,54.40
2019-02-09T01:35:18.324Z,54.40
2019-02-09T01:37:49.923Z,54.40
2019-02-09T01:40:22.935Z,54.40
2019-02-09T01:42:53.846Z,54.50
2019-02-09T01:45:26.785Z,54.40
2019-02-09T01:47:57.681Z,54.40
2019-02-09T01:50:29.844Z,54.40
2019-02-09T01:53:00.745Z,54.40
2019-02-09T01:55:31.177Z,54.30
2019-02-09T01:58:01.835Z,54.30
2019-02-09T02:00:34.260Z,54.30
2019-02-09T02:03:05.264Z,54.40
2019-02-09T02:05:36.710Z,54.30
2019-02-09T02:08:07.188Z,54.40
2019-02-09T02:10:38.856Z,54.30
2019-02-09T02:13:10.659Z,54.30
2019-02-09T02:15:41.732Z,54.30
2019-02-09T02:18:12.615Z,54.30
2019-02-09T02:20:43.295Z,54.30
2019-02-09T02:23:13.832Z,54.30
2019-02-09T02:25:44.345Z,54.30
2019-02-09T02:28:14.848Z,54.30
2019-02-09T02:30:46.446Z,54.40
2019-02-09T02:33:16.928Z,54.40
2019-02-09T02:35:47.776Z,54.40
2019-02-09T02:38:18.335Z,54.40
2019-02-09T02:40:49.145Z,54.40
2019-02-09T02:43:19.660Z,54.50
2019-02-09T02:45:50.201Z,54.50
2019-02-09T02:48:20.892Z,54.60
2019-02-09T02:50:51.406Z,54.60
2019-02-09T02:53:21.884Z,54.40
2019-02-09T02:55:52.412Z,54.50
2019-02-09T02:58:23.818Z,54.50
2019-02-09T03:00:55.310Z,54.40
2019-02-09T03:03:25.902Z,54.50
2019-02-09T03:05:56.513Z,54.50
2019-02-09T03:08:27.104Z,54.50
2019-02-09T03:10:57.693Z,55.10
2019-02-09T03:13:28.196Z,54.40
2019-02-09T03:15:58.732Z,54.40
2019-02-09T03:18:29.213Z,54.40
2019-02-09T03:20:59.931Z,54.40
2019-02-09T03:23:30.381Z,54.40
2019-02-09T03:26:00.769Z,54.40
2019-02-09T03:28:32.296Z,54.40
2019-02-09T03:31:02.859Z,54.40
2019-02-09T03:33:33.381Z,54.40
2019-02-09T03:36:03.928Z,54.50
2019-02-09T03:38:34.486Z,54.50
2019-02-09T03:41:04.955Z,54.50
2019-02-09T03:43:35.539Z,54.50
2019-02-09T03:46:06.069Z,54.60
2019-02-09T03:48:36.633Z,54.60
2019-02-09T03:51:07.400Z,54.70
2019-02-09T03:53:38.156Z,54.70
2019-02-09T03:56:11.720Z,54.60
2019-02-09T03:58:42.521Z,54.60
2019-02-09T04:01:13.108Z,55.30
2019-02-09T04:03:43.812Z,55.10
2019-02-09T04:06:14.566Z,54.60
2019-02-09T04:08:45.044Z,54.60
2019-02-09T04:11:15.581Z,54.60
2019-02-09T04:13:46.061Z,54.70
2019-02-09T04:16:16.613Z,54.70
2019-02-09T04:18:47.437Z,54.70
2019-02-09T04:21:18.003Z,54.70
2019-02-09T04:23:51.550Z,54.70
2019-02-09T04:26:22.160Z,54.70
2019-02-09T04:28:52.957Z,54.70
2019-02-09T04:31:23.483Z,54.80
2019-02-09T04:33:54.261Z,54.90
2019-02-09T04:36:24.836Z,54.80
2019-02-09T04:38:55.562Z,54.80
2019-02-09T04:41:26.177Z,54.80
2019-02-09T04:43:56.712Z,54.80
2019-02-09T04:46:27.404Z,54.80
2019-02-09T04:48:57.956Z,54.80
2019-02-09T04:51:28.581Z,54.80
2019-02-09T04:53:59.510Z,54.90
2019-02-09T04:56:30.108Z,54.90
2019-02-09T04:59:00.623Z,54.90
2019-02-09T05:01:31.411Z,55.60
2019-02-09T05:04:01.895Z,55.00
2019-02-09T05:06:32.422Z,55.00
2019-02-09T05:09:02.996Z,55.00
2019-02-09T05:11:34.724Z,55.00
2019-02-09T05:14:05.524Z,55.00
2019-02-09T05:16:35.997Z,55.10
2019-02-09T05:19:06.371Z,55.00
2019-02-09T05:21:37.008Z,55.00
2019-02-09T05:24:07.477Z,55.00
2019-02-09T05:26:38.133Z,55.00
2019-02-09T05:29:08.574Z,55.00
2019-02-09T05:31:39.026Z,54.90
2019-02-09T05:34:09.677Z,54.90
2019-02-09T05:36:40.299Z,54.80
2019-02-09T05:39:10.867Z,54.80
2019-02-09T05:41:41.360Z,54.80
2019-02-09T05:44:11.896Z,54.80
2019-02-09T05:46:42.534Z,54.80
2019-02-09T05:49:13.075Z,54.90
2019-02-09T05:51:43.656Z,54.90
2019-02-09T05:54:14.386Z,54.90
2019-02-09T05:56:44.947Z,54.90
2019-02-09T05:59:15.552Z,55.00
2019-02-09T06:01:46.098Z,55.60
2019-02-09T06:04:16.674Z,54.90
2019-02-09T06:06:47.364Z,54.90
2019-02-09T06:09:17.767Z,54.90
2019-02-09T06:11:48.182Z,55.00
2019-02-09T06:14:18.697Z,55.00
2019-02-09T06:16:49.141Z,54.90
2019-02-09T06:19:19.625Z,55.00
2019-02-09T06:21:50.053Z,54.90
2019-02-09T06:24:20.551Z,55.00
2019-02-09T06:26:51.002Z,55.00
2019-02-09T06:29:21.478Z,55.10
2019-02-09T06:31:52.135Z,55.00
2019-02-09T06:34:22.542Z,55.10
2019-02-09T06:36:53.019Z,55.10
2019-02-09T06:39:23.558Z,55.10
2019-02-09T06:41:53.970Z,55.10
2019-02-09T06:44:24.364Z,55.10
2019-02-09T06:46:54.799Z,55.20
2019-02-09T06:49:25.384Z,55.20
2019-02-09T06:51:55.967Z,55.10
2019-02-09T06:54:26.520Z,55.20
2019-02-09T06:56:57.167Z,55.10
2019-02-09T06:59:27.691Z,55.10
2019-02-09T07:01:58.237Z,55.20
2019-02-09T07:04:28.736Z,55.20
2019-02-09T07:06:59.223Z,55.20
2019-02-09T07:09:29.724Z,55.20
2019-02-09T07:12:00.157Z,55.20
2019-02-09T07:14:30.795Z,55.20
2019-02-09T07:17:01.359Z,55.20
2019-02-09T07:19:31.883Z,55.20
2019-02-09T07:22:03.431Z,55.20
2019-02-09T07:24:33.936Z,56.00
2019-02-09T07:27:04.549Z,55.20
2019-02-09T07:29:35.045Z,55.20
2019-02-09T07:32:05.830Z,55.20
2019-02-09T07:34:36.437Z,55.20
2019-02-09T07:37:07.214Z,55.20
2019-02-09T07:39:38.781Z,55.10
2019-02-09T07:42:09.526Z,55.10
2019-02-09T07:44:40.022Z,55.10
2019-02-09T07:47:10.541Z,55.20
2019-02-09T07:49:41.145Z,55.20
2019-02-09T07:52:11.662Z,55.20
2019-02-09T07:54:42.232Z,55.20
2019-02-09T07:57:12.800Z,55.10
2019-02-09T07:59:43.584Z,55.20
2019-02-09T08:02:14.104Z,55.20
2019-02-09T08:04:44.668Z,55.30
2019-02-09T08:07:15.326Z,55.20
2019-02-09T08:09:45.899Z,55.20
2019-02-09T08:12:16.385Z,55.30
2019-02-09T08:14:46.945Z,55.30
2019-02-09T08:17:17.640Z,55.30
2019-02-09T08:19:48.176Z,55.40
2019-02-09T08:22:18.584Z,55.40
2019-02-09T08:24:48.970Z,55.50
2019-02-09T08:27:23.516Z,55.50
2019-02-09T08:29:51.483Z,55.50
2019-02-09T08:32:22.222Z,55.60
2019-02-09T08:34:52.665Z,55.60
2019-02-09T08:37:23.146Z,55.70
2019-02-09T08:39:53.597Z,55.70
2019-02-09T08:42:23.972Z,55.70
2019-02-09T08:44:54.399Z,55.60
2019-02-09T08:47:24.990Z,55.60
2019-02-09T08:49:55.573Z,55.50
2019-02-09T08:52:26.041Z,55.50
2019-02-09T08:54:56.529Z,55.50
2019-02-09T08:57:27.157Z,55.70
2019-02-09T08:59:57.614Z,55.60
2019-02-09T09:02:28.540Z,55.60
2019-02-09T09:04:59.019Z,55.50
2019-02-09T09:07:30.333Z,55.50
2019-02-09T09:10:01.185Z,55.50
2019-02-09T09:12:31.714Z,55.40
2019-02-09T09:15:02.191Z,55.50
2019-02-09T09:17:32.722Z,55.50
2019-02-09T09:20:03.404Z,55.50
2019-02-09T09:22:34.145Z,55.40
2019-02-09T09:25:05.280Z,55.50
2019-02-09T09:27:35.829Z,55.50
2019-02-09T09:30:08.224Z,55.40
2019-02-09T09:32:38.804Z,55.40
2019-02-09T09:35:09.567Z,55.30
2019-02-09T09:37:43.033Z,55.30
2019-02-09T09:40:23.080Z,55.40
2019-02-09T09:42:53.984Z,55.20
2019-02-09T09:45:26.454Z,55.20
2019-02-09T09:47:57.087Z,55.10
2019-02-09T09:50:28.084Z,55.00
2019-02-09T09:52:58.621Z,55.00
2019-02-09T09:55:29.080Z,55.10
2019-02-09T09:57:59.487Z,55.10
2019-02-09T10:00:30.316Z,55.20
2019-02-09T10:03:00.890Z,55.20
2019-02-09T10:05:31.505Z,55.20
2019-02-09T10:08:02.023Z,55.20
2019-02-09T10:10:32.731Z,55.20
2019-02-09T10:13:06.865Z,55.20
2019-02-09T10:15:37.499Z,55.20
2019-02-09T10:18:09.633Z,55.20
2019-02-09T10:20:40.126Z,55.10
2019-02-09T10:23:10.814Z,55.20
2019-02-09T10:25:41.332Z,55.10
2019-02-09T10:28:12.050Z,55.00
2019-02-09T10:30:42.558Z,54.90
2019-02-09T10:33:13.045Z,54.60
2019-02-09T10:35:43.464Z,54.30
2019-02-09T10:38:14.312Z,54.10
2019-02-09T10:40:44.772Z,54.10
2019-02-09T10:43:15.684Z,54.10
2019-02-09T10:45:46.384Z,54.10
2019-02-09T10:48:16.864Z,54.20
2019-02-09T10:50:47.621Z,54.80
2019-02-09T10:53:18.173Z,54.10
2019-02-09T10:55:48.617Z,54.20
2019-02-09T10:58:19.046Z,54.00
2019-02-09T11:01:02.249Z,54.00
2019-02-09T11:03:32.777Z,53.80
2019-02-09T11:06:03.345Z,53.60
2019-02-09T11:08:33.765Z,53.40
2019-02-09T11:11:04.534Z,53.20
2019-02-09T11:13:34.985Z,52.90
2019-02-09T11:16:05.569Z,52.70
2019-02-09T11:18:36.020Z,52.50
2019-02-09T11:21:06.484Z,52.40
2019-02-09T11:23:37.130Z,52.40
2019-02-09T11:26:07.591Z,51.60
2019-02-09T11:28:37.996Z,52.20
2019-02-09T11:31:08.520Z,52.20
2019-02-09T11:33:38.996Z,52.20
2019-02-09T11:36:09.539Z,52.30
2019-02-09T11:38:40.128Z,52.30
2019-02-09T11:41:11.097Z,52.40
2019-02-09T11:43:41.678Z,52.40
2019-02-09T11:46:12.160Z,52.50
2019-02-09T11:48:42.535Z,52.70
2019-02-09T11:51:12.929Z,53.40
2019-02-09T11:53:43.552Z,52.70
2019-02-09T11:56:14.040Z,52.60
2019-02-09T11:58:44.553Z,52.50
2019-02-09T12:01:14.976Z,52.40
2019-02-09T12:03:45.337Z,52.30
2019-02-09T12:06:16.513Z,52.20
2019-02-09T12:08:47.047Z,52.10
2019-02-09T12:11:17.445Z,52.00
2019-02-09T12:13:55.201Z,51.90
2019-02-09T12:16:21.170Z,51.80
2019-02-09T12:18:51.709Z,51.70
2019-02-09T12:21:22.290Z,51.60
2019-02-09T12:23:52.785Z,51.70
2019-02-09T12:26:23.337Z,51.60
2019-02-09T12:28:53.933Z,51.70
2019-02-09T12:31:24.413Z,51.70
2019-02-09T12:33:55.477Z,51.80
2019-02-09T12:36:26.063Z,51.90
2019-02-09T12:38:58.113Z,51.90
2019-02-09T12:41:28.775Z,51.80
2019-02-09T12:43:59.452Z,51.90
2019-02-09T12:46:30.180Z,51.90
2019-02-09T12:49:00.712Z,52.70
2019-02-09T12:51:31.201Z,51.90
2019-02-09T12:54:01.764Z,52.00
2019-02-09T12:56:32.241Z,52.10
2019-02-09T12:59:02.687Z,52.10
2019-02-09T13:01:33.167Z,52.10
2019-02-09T13:04:03.740Z,52.10
2019-02-09T13:06:34.249Z,52.00
2019-02-09T13:09:07.912Z,51.90
2019-02-09T13:11:39.167Z,51.80
2019-02-09T13:14:09.603Z,51.80
2019-02-09T13:16:40.372Z,51.80
2019-02-09T13:19:11.165Z,51.80
2019-02-09T13:21:41.902Z,51.90
2019-02-09T13:24:12.280Z,52.10
2019-02-09T13:26:42.738Z,52.10
2019-02-09T13:29:13.379Z,52.20
2019-02-09T13:31:43.889Z,52.20
2019-02-09T13:34:14.362Z,52.20
2019-02-09T13:36:45.002Z,52.30
2019-02-09T13:39:15.425Z,52.30
2019-02-09T13:41:45.937Z,52.30
2019-02-09T13:44:16.416Z,52.40
2019-02-09T13:46:46.834Z,53.10
2019-02-09T13:49:17.257Z,52.40
2019-02-09T13:51:47.661Z,52.40
2019-02-09T13:54:18.063Z,52.30
2019-02-09T13:56:48.598Z,52.30
2019-02-09T13:59:19.037Z,52.20
2019-02-09T14:01:52.600Z,52.20
2019-02-09T14:04:23.096Z,52.30
2019-02-09T14:06:53.762Z,52.20
2019-02-09T14:09:24.392Z,52.20
2019-02-09T14:11:54.880Z,52.20
2019-02-09T14:14:25.410Z,52.20
2019-02-09T14:16:56.114Z,52.20
2019-02-09T14:19:26.649Z,52.10
2019-02-09T14:21:57.123Z,52.10
2019-02-09T14:24:27.658Z,52.20
2019-02-09T14:26:58.160Z,52.20
2019-02-09T14:29:28.748Z,52.10
2019-02-09T14:31:59.390Z,52.10
2019-02-09T14:34:29.863Z,52.10
2019-02-09T14:37:00.497Z,52.10
2019-02-09T14:39:30.981Z,52.10
2019-02-09T14:42:01.442Z,52.30
2019-02-09T14:44:32.072Z,52.20
2019-02-09T14:47:02.576Z,52.30
2019-02-09T14:49:33.071Z,52.50
2019-02-09T14:52:03.723Z,52.60
2019-02-09T14:54:34.161Z,52.70
2019-02-09T14:57:04.986Z,52.80
2019-02-09T14:59:35.560Z,52.90
2019-02-09T15:02:07.336Z,52.90
2019-02-09T15:04:37.837Z,52.90
2019-02-09T15:07:08.585Z,53.00
2019-02-09T15:09:39.050Z,53.00
2019-02-09T15:12:09.592Z,53.20
2019-02-09T15:14:39.955Z,53.30
2019-02-09T15:17:10.568Z,53.20
2019-02-09T15:19:41.877Z,53.30
2019-02-09T15:22:12.306Z,53.30
2019-02-09T15:24:42.803Z,53.30
2019-02-09T15:27:13.751Z,53.30
2019-02-09T15:29:44.480Z,53.40
2019-02-09T15:32:15.193Z,53.40
2019-02-09T15:34:46.729Z,53.50
2019-02-09T15:37:17.228Z,53.40
2019-02-09T15:39:47.750Z,54.10
2019-02-09T15:42:18.390Z,53.50
2019-02-09T15:44:48.949Z,53.50
2019-02-09T15:47:19.717Z,53.50
2019-02-09T15:49:50.183Z,53.50
2019-02-09T15:52:20.954Z,53.60
2019-02-09T15:54:51.470Z,53.50
2019-02-09T15:57:22.023Z,53.40
2019-02-09T15:59:52.595Z,53.40
2019-02-09T16:02:23.136Z,53.40
2019-02-09T16:04:53.588Z,53.30
2019-02-09T16:07:24.447Z,53.40
2019-02-09T16:09:54.893Z,54.00
2019-02-09T16:12:25.318Z,53.30
2019-02-09T16:14:55.998Z,53.30
2019-02-09T16:17:26.480Z,53.30
2019-02-09T16:19:56.977Z,53.30
2019-02-09T16:22:27.460Z,53.20
2019-02-09T16:24:57.991Z,53.20
2019-02-09T16:27:28.428Z,53.20
2019-02-09T16:29:58.863Z,53.20
2019-02-09T16:32:29.286Z,53.20
2019-02-09T16:34:59.853Z,53.20
2019-02-09T16:37:30.566Z,53.40
2019-02-09T16:40:01.078Z,53.30
2019-02-09T16:42:32.676Z,53.30
2019-02-09T16:45:07.241Z,53.30
2019-02-09T16:47:38.942Z,53.40
2019-02-09T16:50:09.429Z,53.30
2019-02-09T16:52:40.146Z,53.40
2019-02-09T16:55:13.524Z,53.40
2019-02-09T16:57:43.995Z,53.40
2019-02-09T17:00:18.257Z,53.50
2019-02-09T17:02:48.830Z,53.40
2019-02-09T17:05:19.459Z,53.50
2019-02-09T17:07:50.113Z,53.50
2019-02-09T17:10:22.471Z,53.60
2019-02-09T17:12:53.360Z,53.60
2019-02-09T17:15:25.152Z,53.60
2019-02-09T17:17:56.154Z,53.80
2019-02-09T17:20:27.806Z,53.80
2019-02-09T17:22:58.529Z,53.70
2019-02-09T17:25:28.976Z,53.60
2019-02-09T17:27:59.382Z,53.50
2019-02-09T17:30:30.844Z,53.60
2019-02-09T17:33:01.213Z,53.60
2019-02-09T17:35:32.066Z,53.70
2019-02-09T17:38:02.968Z,53.70
2019-02-09T17:40:36.154Z,53.70
2019-02-09T17:43:07.749Z,53.80
2019-02-09T17:45:52.173Z,53.80
2019-02-09T17:48:22.731Z,53.80
2019-02-09T17:50:53.212Z,53.80
2019-02-09T17:53:24.227Z,53.90
2019-02-09T17:55:54.896Z,53.90
2019-02-09T17:58:25.479Z,53.80
2019-02-09T18:00:59.783Z,53.90
2019-02-09T18:03:30.328Z,53.90
2019-02-09T18:06:02.025Z,53.90
2019-02-09T18:08:33.027Z,53.90
2019-02-09T18:11:03.867Z,53.90
2019-02-09T18:13:34.646Z,54.00
2019-02-09T18:16:05.924Z,54.00
2019-02-09T18:18:36.732Z,54.00
2019-02-09T18:21:07.638Z,54.10
2019-02-09T18:23:38.379Z,54.10
2019-02-09T18:26:10.010Z,54.10
2019-02-09T18:28:40.766Z,54.80
2019-02-09T18:31:11.914Z,54.10
2019-02-09T18:33:42.849Z,54.10
2019-02-09T18:36:13.726Z,54.10
2019-02-09T18:38:44.279Z,54.20
2019-02-09T18:41:15.162Z,54.10
2019-02-09T18:43:46.087Z,54.20
2019-02-09T18:46:16.870Z,54.20
2019-02-09T18:48:47.382Z,54.20
2019-02-09T18:51:17.914Z,54.20
2019-02-09T18:53:48.590Z,54.20
2019-02-09T18:56:19.497Z,54.20
2019-02-09T18:58:50.332Z,54.20
2019-02-09T19:01:21.312Z,54.10
2019-02-09T19:03:52.173Z,54.10
2019-02-09T19:06:22.855Z,54.20
2019-02-09T19:08:53.704Z,54.10
2019-02-09T19:11:24.429Z,54.80
2019-02-09T19:13:55.259Z,54.00
2019-02-09T19:16:26.269Z,54.00
2019-02-09T19:18:57.397Z,53.80
2019-02-09T19:21:28.048Z,54.00
2019-02-09T19:24:00.696Z,54.00
2019-02-09T19:26:31.162Z,54.00
2019-02-09T19:29:01.779Z,54.00
2019-02-09T19:31:32.341Z,54.10
2019-02-09T19:34:02.940Z,54.10
2019-02-09T19:36:33.569Z,54.10
2019-02-09T19:39:05.609Z,54.10
2019-02-09T19:41:37.750Z,54.20
2019-02-09T19:44:09.076Z,54.20
2019-02-09T19:46:39.679Z,54.10
2019-02-09T19:49:10.367Z,54.30
2019-02-09T19:51:40.839Z,54.20
2019-02-09T19:54:11.604Z,54.30
2019-02-09T19:56:43.113Z,54.30
2019-02-09T19:59:14.165Z,54.30
2019-02-09T20:01:44.579Z,55.00
2019-02-09T20:04:15.411Z,54.20
2019-02-09T20:06:46.011Z,54.20
2019-02-09T20:09:16.575Z,54.30
2019-02-09T20:11:47.214Z,54.20
2019-02-09T20:14:17.659Z,54.20
2019-02-09T20:16:48.169Z,54.20
2019-02-09T20:19:18.727Z,54.20
2019-02-09T20:21:49.252Z,54.30
2019-02-09T20:24:22.492Z,54.30
2019-02-09T20:26:53.220Z,54.30
2019-02-09T20:29:24.126Z,54.30
2019-02-09T20:31:54.673Z,54.30
2019-02-09T20:34:25.347Z,54.30
2019-02-09T20:36:55.805Z,54.30
2019-02-09T20:39:27.282Z,54.30
2019-02-09T20:41:57.921Z,54.40
2019-02-09T20:44:28.589Z,54.40
2019-02-09T20:46:59.226Z,54.40
2019-02-09T20:49:29.934Z,54.40
2019-02-09T20:52:00.655Z,54.40
2019-02-09T20:54:31.192Z,54.40
2019-02-09T20:57:01.714Z,54.50
2019-02-09T20:59:32.196Z,54.40
2019-02-09T21:02:02.749Z,54.40
2019-02-09T21:04:33.225Z,54.40
2019-02-09T21:07:04.205Z,54.30
2019-02-09T21:09:34.646Z,54.30
2019-02-09T21:12:05.115Z,54.30
2019-02-09T21:14:35.836Z,54.40
2019-02-09T21:17:06.310Z,54.30
2019-02-09T21:19:37.100Z,54.40
2019-02-09T21:22:07.725Z,54.40
2019-02-09T21:24:38.165Z,54.40
2019-02-09T21:27:08.737Z,54.40
2019-02-09T21:29:39.208Z,54.30
2019-02-09T21:32:09.822Z,54.30
2019-02-09T21:34:40.364Z,54.30
2019-02-09T21:37:10.935Z,54.30
2019-02-09T21:39:41.704Z,54.30
2019-02-09T21:42:12.268Z,54.30
2019-02-09T21:44:42.984Z,54.30
2019-02-09T21:47:13.559Z,54.70
2019-02-09T21:49:44.230Z,54.30
2019-02-09T21:52:14.861Z,54.30
2019-02-09T21:54:45.537Z,54.40
2019-02-09T21:57:16.133Z,54.50
2019-02-09T21:59:46.614Z,54.50
2019-02-09T22:02:17.307Z,54.40
2019-02-09T22:04:47.909Z,54.40
2019-02-09T22:07:18.545Z,54.40
2019-02-09T22:09:49.056Z,54.50
2019-02-09T22:12:19.647Z,54.40
2019-02-09T22:14:50.273Z,54.60
2019-02-09T22:17:20.931Z,54.60
2019-02-09T22:19:51.703Z,54.50
2019-02-09T22:22:22.267Z,54.60
2019-02-09T22:24:54.468Z,54.70
2019-02-09T22:27:25.212Z,54.60
2019-02-09T22:29:55.835Z,54.60
2019-02-09T22:32:26.516Z,54.60
2019-02-09T22:34:57.450Z,54.60
2019-02-09T22:37:28.132Z,54.60
2019-02-09T22:40:02.574Z,54.70
2019-02-09T22:42:33.229Z,54.70
2019-02-09T22:45:04.095Z,54.60
2019-02-09T22:47:35.934Z,54.60
2019-02-09T22:50:09.152Z,54.60
2019-02-09T22:52:39.836Z,54.60
2019-02-09T22:55:11.168Z,54.60
2019-02-09T22:57:41.609Z,54.60
2019-02-09T23:00:21.448Z,54.60
2019-02-09T23:02:53.648Z,54.60
2019-02-09T23:05:46.778Z,55.30
2019-02-09T23:08:17.277Z,54.60
2019-02-09T23:10:47.733Z,54.60
2019-02-09T23:13:18.318Z,54.60
2019-02-09T23:15:48.873Z,54.70
2019-02-09T23:18:19.318Z,54.70
2019-02-09T23:20:49.779Z,54.90
2019-02-09T23:23:20.310Z,54.80
2019-02-09T23:25:50.896Z,54.80
2019-02-09T23:28:21.507Z,54.80
2019-02-09T23:30:52.079Z,54.80
2019-02-09T23:33:23.200Z,54.80
2019-02-09T23:35:53.885Z,54.80
2019-02-09T23:38:24.337Z,54.80
2019-02-09T23:40:54.871Z,54.40
2019-02-09T23:43:25.441Z,54.90
2019-02-09T23:45:55.921Z,54.90
2019-02-09T23:48:26.334Z,54.90
2019-02-09T23:50:56.757Z,55.00
2019-02-09T23:53:27.529Z,55.00
2019-02-09T23:55:58.016Z,55.00
2019-02-09T23:58:29.531Z,55.10
